createdAt,value
2019-01-19T00:02:21.162Z,98225.95
2019-01-19T00:05:33.344Z,98225.45
2019-01-19T00:08:16.929Z,98228.70
2019-01-19T00:11:31.651Z,98223.02
2019-01-19T00:14:05.990Z,98230.23
2019-01-19T00:17:04.008Z,98222.58
2019-01-19T00:20:10.591Z,98224.66
2019-01-19T00:23:29.735Z,98221.05
2019-01-19T00:26:45.675Z,98220.01
2019-01-19T00:30:13.791Z,98218.33
2019-01-19T00:32:56.035Z,98216.63
2019-01-19T00:36:15.643Z,98221.34
2019-01-19T00:39:16.125Z,98215.45
2019-01-19T00:42:05.862Z,98215.30
2019-01-19T00:44:49.006Z,98215.01
2019-01-19T00:47:53.135Z,98215.52
2019-01-19T00:50:57.728Z,98215.52
2019-01-19T00:53:36.888Z,98212.64
2019-01-19T00:56:37.054Z,98211.09
2019-01-19T00:59:13.339Z,98207.64
2019-01-19T01:02:37.525Z,98214.36
2019-01-19T01:05:27.928Z,98205.14
2019-01-19T01:08:25.727Z,98208.09
2019-01-19T01:11:36.062Z,98211.03
2019-01-19T01:15:13.194Z,98202.21
2019-01-19T01:18:29.405Z,98200.44
2019-01-19T01:21:28.754Z,98205.73
2019-01-19T01:24:25.689Z,98206.18
2019-01-19T01:27:27.137Z,98205.08
2019-01-19T01:30:18.044Z,98207.56
2019-01-19T01:33:12.360Z,98200.51
2019-01-19T01:36:20.207Z,98208.98
2019-01-19T01:39:14.577Z,98197.05
2019-01-19T01:42:39.682Z,98192.86
2019-01-19T01:45:31.836Z,98196.24
2019-01-19T01:48:37.874Z,98195.36
2019-01-19T01:51:54.102Z,98190.87
2019-01-19T01:55:22.405Z,98190.13
2019-01-19T01:57:57.605Z,98184.23
2019-01-19T02:00:36.141Z,98185.34
2019-01-19T02:03:49.393Z,98178.81
2019-01-19T02:07:02.812Z,98177.91
2019-01-19T02:09:59.673Z,98173.87
2019-01-19T02:13:13.347Z,98176.02
2019-01-19T02:16:03.532Z,98169.02
2019-01-19T02:19:05.974Z,98164.73
2019-01-19T02:22:09.877Z,98165.95
2019-01-19T02:25:12.119Z,98168.50
2019-01-19T02:28:20.083Z,98159.09
2019-01-19T02:31:33.861Z,98159.09
2019-01-19T02:34:31.660Z,98161.52
2019-01-19T02:37:24.218Z,98155.70
2019-01-19T02:40:34.800Z,98155.48
2019-01-19T02:43:40.790Z,98155.48
2019-01-19T02:46:38.658Z,98155.84
2019-01-19T02:49:42.666Z,98155.84
2019-01-19T02:52:45.205Z,98159.23
2019-01-19T02:55:47.242Z,98152.84
2019-01-19T02:59:00.816Z,98153.06
2019-01-19T03:01:51.807Z,98147.50
2019-01-19T03:04:49.826Z,98147.50
2019-01-19T03:08:00.593Z,98146.56
2019-01-19T03:10:55.549Z,98154.11
2019-01-19T03:14:14.635Z,98150.08
2019-01-19T03:17:13.528Z,98150.06
2019-01-19T03:20:11.448Z,98151.97
2019-01-19T03:23:18.057Z,98148.34
2019-01-19T03:26:13.085Z,98149.77
2019-01-19T03:29:21.652Z,98142.99
2019-01-19T03:32:53.779Z,98148.21
2019-01-19T03:35:47.112Z,98139.30
2019-01-19T03:38:49.958Z,98137.98
2019-01-19T03:41:45.139Z,98137.98
2019-01-19T03:44:45.357Z,98135.14
2019-01-19T03:47:37.727Z,98135.14
2019-01-19T03:50:37.274Z,98133.72
2019-01-19T03:53:56.435Z,98135.47
2019-01-19T03:57:12.678Z,98135.47
2019-01-19T03:59:59.280Z,98138.85
2019-01-19T04:03:01.771Z,98136.27
2019-01-19T04:06:03.142Z,98134.88
2019-01-19T04:09:27.282Z,98139.64
2019-01-19T04:12:48.568Z,98139.64
2019-01-19T04:15:46.219Z,98140.03
2019-01-19T04:18:55.872Z,98136.02
2019-01-19T04:22:08.019Z,98130.30
2019-01-19T04:25:19.705Z,98130.30
2019-01-19T04:27:49.170Z,98129.41
2019-01-19T04:30:18.606Z,98129.41
2019-01-19T04:32:48.074Z,98145.43
2019-01-19T04:35:17.511Z,98142.44
2019-01-19T04:37:46.954Z,98139.70
2019-01-19T04:40:16.408Z,98139.52
2019-01-19T04:42:46.531Z,98140.28
2019-01-19T04:45:16.001Z,98137.27
2019-01-19T04:47:45.447Z,98137.27
2019-01-19T04:50:14.909Z,98123.46
2019-01-19T04:52:44.343Z,98128.70
2019-01-19T04:55:13.770Z,98128.70
2019-01-19T04:57:43.230Z,98129.80
2019-01-19T05:00:17.893Z,98130.30
2019-01-19T05:02:47.432Z,98130.86
2019-01-19T05:05:16.871Z,98129.92
2019-01-19T05:07:46.320Z,98136.36
2019-01-19T05:10:15.770Z,98120.17
2019-01-19T05:12:45.205Z,98120.17
2019-01-19T05:15:19.839Z,98131.29
2019-01-19T05:17:49.457Z,98118.37
2019-01-19T05:20:18.999Z,98121.83
2019-01-19T05:22:48.385Z,98118.23
2019-01-19T05:25:17.827Z,98119.99
2019-01-19T05:27:47.277Z,98119.99
2019-01-19T05:30:18.831Z,98106.62
2019-01-19T05:32:48.378Z,98106.62
2019-01-19T05:35:17.813Z,98115.84
2019-01-19T05:37:47.250Z,98115.84
2019-01-19T05:40:16.711Z,98110.05
2019-01-19T05:42:46.149Z,98110.05
2019-01-19T05:45:16.317Z,98106.27
2019-01-19T05:47:45.753Z,98110.37
2019-01-19T05:50:22.621Z,98111.00
2019-01-19T05:52:52.042Z,98106.96
2019-01-19T05:55:21.483Z,98106.96
2019-01-19T05:57:50.949Z,98108.58
2019-01-19T06:00:31.066Z,98104.57
2019-01-19T06:03:00.541Z,98108.75
2019-01-19T06:05:32.006Z,98103.73
2019-01-19T06:08:01.176Z,98100.91
2019-01-19T06:10:30.613Z,98105.16
2019-01-19T06:13:00.051Z,98105.70
2019-01-19T06:15:29.515Z,98111.97
2019-01-19T06:17:58.986Z,98112.31
2019-01-19T06:20:28.430Z,98111.48
2019-01-19T06:22:57.881Z,98111.48
2019-01-19T06:25:27.346Z,98108.98
2019-01-19T06:27:56.782Z,98100.19
2019-01-19T06:30:26.240Z,98105.66
2019-01-19T06:32:55.682Z,98109.33
2019-01-19T06:35:25.238Z,98102.94
2019-01-19T06:37:54.681Z,98093.48
2019-01-19T06:40:24.115Z,98100.27
2019-01-19T06:42:53.597Z,98102.34
2019-01-19T06:45:26.777Z,98102.40
2019-01-19T06:47:56.236Z,98103.20
2019-01-19T06:50:25.686Z,98096.31
2019-01-19T06:52:55.162Z,98102.91
2019-01-19T06:55:27.534Z,98102.91
2019-01-19T06:57:57.057Z,98101.27
2019-01-19T07:00:26.517Z,98105.28
2019-01-19T07:02:56.052Z,98104.85
2019-01-19T07:05:25.504Z,98104.85
2019-01-19T07:07:54.943Z,98094.80
2019-01-19T07:10:25.526Z,98109.33
2019-01-19T07:12:54.957Z,98104.42
2019-01-19T07:15:24.390Z,98098.33
2019-01-19T07:17:53.858Z,98098.33
2019-01-19T07:20:28.562Z,98096.31
2019-01-19T07:22:58.021Z,98096.31
2019-01-19T07:25:27.453Z,98099.59
2019-01-19T07:27:57.020Z,98107.80
2019-01-19T07:30:26.456Z,98107.80
2019-01-19T07:32:55.891Z,98101.86
2019-01-19T07:35:25.359Z,98105.90
2019-01-19T07:37:54.796Z,98107.91
2019-01-19T07:40:24.590Z,98098.34
2019-01-19T07:43:01.038Z,98119.22
2019-01-19T07:45:30.505Z,98113.64
2019-01-19T07:48:00.117Z,98114.63
2019-01-19T07:50:29.545Z,98121.34
2019-01-19T07:52:59.005Z,98121.34
2019-01-19T07:55:28.458Z,98111.40
2019-01-19T07:57:57.914Z,98111.40
2019-01-19T08:00:29.650Z,98116.17
2019-01-19T08:02:59.081Z,98116.17
2019-01-19T08:05:28.639Z,98108.28
2019-01-19T08:07:58.077Z,98110.05
2019-01-19T08:10:27.551Z,98121.06
2019-01-19T08:12:56.978Z,98121.06
2019-01-19T08:15:27.268Z,98126.30
2019-01-19T08:17:56.825Z,98112.94
2019-01-19T08:20:26.292Z,98120.34
2019-01-19T08:22:55.774Z,98116.27
2019-01-19T08:25:25.217Z,98116.27
2019-01-19T08:27:54.661Z,98113.50
2019-01-19T08:30:26.111Z,98113.50
2019-01-19T08:32:55.550Z,98113.20
2019-01-19T08:35:25.030Z,98106.42
2019-01-19T08:37:54.467Z,98108.23
2019-01-19T08:40:35.500Z,98109.05
2019-01-19T08:43:24.221Z,98109.39
2019-01-19T08:45:53.678Z,98099.05
2019-01-19T08:48:23.192Z,98100.47
2019-01-19T08:50:52.654Z,98099.28
2019-01-19T08:53:22.093Z,98093.84
2019-01-19T08:55:51.570Z,98091.09
2019-01-19T08:58:21.066Z,98090.26
2019-01-19T09:00:50.496Z,98092.32
2019-01-19T09:03:19.967Z,98092.27
2019-01-19T09:05:49.404Z,98093.63
2019-01-19T09:08:18.860Z,98091.41
2019-01-19T09:10:48.296Z,98084.49
2019-01-19T09:13:17.848Z,98080.59
2019-01-19T09:15:47.295Z,98084.34
2019-01-19T09:18:16.731Z,98085.36
2019-01-19T09:20:46.316Z,98075.83
2019-01-19T09:23:21.541Z,98078.88
2019-01-19T09:25:51.006Z,98081.77
2019-01-19T09:28:20.458Z,98079.37
2019-01-19T09:30:49.923Z,98079.52
2019-01-19T09:33:19.352Z,98081.06
2019-01-19T09:35:48.800Z,98079.56
2019-01-19T09:38:18.255Z,98081.97
2019-01-19T09:40:47.700Z,98078.70
2019-01-19T09:43:18.288Z,98074.45
2019-01-19T09:45:47.780Z,98070.28
2019-01-19T09:48:17.208Z,98072.19
2019-01-19T09:50:46.672Z,98076.34
2019-01-19T09:53:16.104Z,98075.02
2019-01-19T09:55:45.600Z,98073.07
2019-01-19T09:58:15.049Z,98070.42
2019-01-19T10:00:45.797Z,98071.61
2019-01-19T10:03:15.417Z,98065.35
2019-01-19T10:05:44.855Z,98064.67
2019-01-19T10:08:14.309Z,98066.13
2019-01-19T10:10:44.912Z,98063.64
2019-01-19T10:13:14.366Z,98060.91
2019-01-19T10:15:43.828Z,98064.20
2019-01-19T10:18:13.337Z,98061.62
2019-01-19T10:20:42.792Z,98062.42
2019-01-19T10:23:12.246Z,98056.23
2019-01-19T10:25:41.676Z,98054.10
2019-01-19T10:28:11.131Z,98049.59
2019-01-19T10:30:40.573Z,98043.84
2019-01-19T10:33:10.033Z,98040.46
2019-01-19T10:35:39.480Z,98039.94
2019-01-19T10:38:08.910Z,98040.75
2019-01-19T10:40:38.418Z,98035.03
2019-01-19T10:43:07.882Z,98035.80
2019-01-19T10:45:40.898Z,98030.57
2019-01-19T10:48:10.408Z,98028.77
2019-01-19T10:50:39.832Z,98021.48
2019-01-19T10:53:09.292Z,98020.75
2019-01-19T10:55:38.720Z,98018.53
2019-01-19T10:58:08.282Z,98016.70
2019-01-19T11:00:37.712Z,98011.61
2019-01-19T11:03:07.151Z,98007.91
2019-01-19T11:05:36.600Z,98014.65
2019-01-19T11:08:07.981Z,98012.64
2019-01-19T11:10:37.420Z,97999.89
2019-01-19T11:13:06.872Z,98007.41
2019-01-19T11:15:36.404Z,98004.52
2019-01-19T11:18:06.074Z,98004.67
2019-01-19T11:20:35.545Z,98002.70
2019-01-19T11:23:05.054Z,97996.40
2019-01-19T11:25:37.291Z,97992.09
2019-01-19T11:28:06.756Z,97992.02
2019-01-19T11:30:36.204Z,97985.30
2019-01-19T11:33:05.845Z,97981.72
2019-01-19T11:35:35.307Z,97972.33
2019-01-19T11:38:11.611Z,97968.22
2019-01-19T11:40:37.651Z,97969.06
2019-01-19T11:43:11.176Z,97960.73
2019-01-19T11:45:40.657Z,97954.89
2019-01-19T11:48:10.163Z,97958.84
2019-01-19T11:50:39.640Z,97954.55
2019-01-19T11:53:09.088Z,97944.45
2019-01-19T11:55:38.528Z,97940.19
2019-01-19T11:58:08.017Z,97928.19
2019-01-19T12:00:39.238Z,97929.61
2019-01-19T12:03:09.113Z,97927.72
2019-01-19T12:05:39.640Z,97917.59
2019-01-19T12:08:10.471Z,97917.34
2019-01-19T12:10:39.847Z,97909.70
2019-01-19T12:13:09.274Z,97907.57
2019-01-19T12:15:38.637Z,97902.08
2019-01-19T12:18:08.480Z,97889.63
2019-01-19T12:20:42.974Z,97890.02
2019-01-19T12:23:12.386Z,97882.61
2019-01-19T12:25:41.765Z,97891.48
2019-01-19T12:28:11.117Z,97881.59
2019-01-19T12:30:40.504Z,97873.86
2019-01-19T12:33:09.869Z,97864.73
2019-01-19T12:35:39.360Z,97865.19
2019-01-19T12:38:08.722Z,97853.38
2019-01-19T12:40:38.746Z,97853.52
2019-01-19T12:43:27.773Z,97851.84
2019-01-19T12:46:00.015Z,97839.19
2019-01-19T12:48:29.384Z,97825.40
2019-01-19T12:50:59.096Z,97825.40
2019-01-19T12:53:28.540Z,97842.56
2019-01-19T12:55:57.896Z,97833.91
2019-01-19T12:58:27.371Z,97837.88
2019-01-19T13:00:56.725Z,97832.92
2019-01-19T13:03:26.269Z,97822.44
2019-01-19T13:06:29.934Z,97818.95
2019-01-19T13:08:59.477Z,97811.09
2019-01-19T13:11:54.091Z,97807.01
2019-01-19T13:14:23.565Z,97807.09
2019-01-19T13:17:29.826Z,97805.83
2019-01-19T13:20:27.465Z,97800.88
2019-01-19T13:23:32.007Z,97796.88
2019-01-19T13:26:42.074Z,97794.66
2019-01-19T13:30:01.328Z,97791.69
2019-01-19T13:33:10.965Z,97790.92
2019-01-19T13:36:27.032Z,97790.62
2019-01-19T13:39:07.713Z,97785.90
2019-01-19T13:42:26.305Z,97787.77
2019-01-19T13:45:50.307Z,97782.80
2019-01-19T13:49:07.257Z,97783.85
2019-01-19T13:52:06.937Z,97777.55
2019-01-19T13:55:17.828Z,97770.74
2019-01-19T13:58:24.343Z,97768.41
2019-01-19T14:01:26.056Z,97766.09
2019-01-19T14:04:51.350Z,97773.81
2019-01-19T14:08:00.409Z,97764.00
2019-01-19T14:10:48.442Z,97766.02
2019-01-19T14:13:39.404Z,97762.61
2019-01-19T14:16:57.071Z,97759.67
2019-01-19T14:19:46.801Z,97757.81
2019-01-19T14:23:01.801Z,97766.47
2019-01-19T14:26:32.935Z,97764.80
2019-01-19T14:29:49.392Z,97766.45
2019-01-19T14:33:06.303Z,97758.88
2019-01-19T14:36:22.266Z,97767.52
2019-01-19T14:39:22.796Z,97763.99
2019-01-19T14:42:24.841Z,97757.50
2019-01-19T14:45:43.940Z,97754.95
2019-01-19T14:48:57.545Z,97763.36
2019-01-19T14:52:03.385Z,97756.38
2019-01-19T14:54:46.537Z,97751.59
2019-01-19T14:57:54.805Z,97747.81
2019-01-19T15:01:06.820Z,97755.03
2019-01-19T15:03:54.995Z,97759.06
2019-01-19T15:07:07.725Z,97747.63
2019-01-19T15:10:24.016Z,97745.06
2019-01-19T15:13:39.922Z,97739.64
2019-01-19T15:16:58.417Z,97739.91
2019-01-19T15:20:17.697Z,97735.31
2019-01-19T15:23:17.900Z,97729.68
2019-01-19T15:26:20.686Z,97733.72
2019-01-19T15:29:19.033Z,97740.89
2019-01-19T15:32:36.653Z,97734.22
2019-01-19T15:35:51.397Z,97733.38
2019-01-19T15:38:48.828Z,97731.73
2019-01-19T15:41:51.012Z,97729.07
2019-01-19T15:45:12.986Z,97729.30
2019-01-19T15:48:29.073Z,97733.96
2019-01-19T15:51:40.919Z,97733.66
2019-01-19T15:55:00.425Z,97734.02
2019-01-19T15:57:48.655Z,97730.71
2019-01-19T16:01:10.610Z,97734.98
2019-01-19T16:04:21.396Z,97740.68
2019-01-19T16:07:20.617Z,97735.41
2019-01-19T16:10:51.797Z,97736.48
2019-01-19T16:14:04.965Z,97733.57
2019-01-19T16:16:51.468Z,97730.05
2019-01-19T16:20:10.503Z,97734.55
2019-01-19T16:23:23.968Z,97739.53
2019-01-19T16:26:34.322Z,97733.79
2019-01-19T16:29:39.186Z,97734.61
2019-01-19T16:32:52.755Z,97740.25
2019-01-19T16:35:49.593Z,97737.27
2019-01-19T16:38:58.218Z,97734.08
2019-01-19T16:41:56.193Z,97735.85
2019-01-19T16:45:09.885Z,97736.28
2019-01-19T16:48:17.728Z,97729.20
2019-01-19T16:51:42.773Z,97730.00
2019-01-19T16:54:34.946Z,97729.36
2019-01-19T16:57:59.505Z,97732.89
2019-01-19T17:01:16.749Z,97734.04
2019-01-19T17:04:38.034Z,97729.05
2019-01-19T17:07:54.615Z,97735.88
2019-01-19T17:10:56.579Z,97734.84
2019-01-19T17:13:52.082Z,97738.18
2019-01-19T17:16:41.933Z,97729.80
2019-01-19T17:19:50.890Z,97730.75
2019-01-19T17:22:34.307Z,97730.11
2019-01-19T17:25:35.781Z,97733.03
2019-01-19T17:28:48.040Z,97734.36
2019-01-19T17:31:34.037Z,97728.89
2019-01-19T17:34:36.254Z,97733.53
2019-01-19T17:37:13.957Z,97734.58
2019-01-19T17:40:08.414Z,97738.77
2019-01-19T17:43:27.491Z,97743.61
2019-01-19T17:46:21.949Z,97737.43
2019-01-19T17:49:13.093Z,97737.71
2019-01-19T17:52:35.397Z,97739.17
2019-01-19T17:55:37.133Z,97748.17
2019-01-19T17:58:50.632Z,97743.60
2019-01-19T18:01:48.931Z,97750.91
2019-01-19T18:04:57.947Z,97747.81
2019-01-19T18:07:48.374Z,97746.06
2019-01-19T18:11:16.763Z,97738.63
2019-01-19T18:14:29.446Z,97742.20
2019-01-19T18:17:22.980Z,97742.47
2019-01-19T18:20:30.246Z,97741.86
2019-01-19T18:23:37.801Z,97740.27
2019-01-19T18:26:29.369Z,97742.45
2019-01-19T18:29:26.757Z,97744.55
2019-01-19T18:32:16.016Z,97741.26
2019-01-19T18:35:15.639Z,97749.25
2019-01-19T18:38:17.819Z,97747.10
2019-01-19T18:41:02.322Z,97742.01
2019-01-19T18:44:19.889Z,97742.47
2019-01-19T18:47:21.328Z,97742.56
2019-01-19T18:50:30.521Z,97748.17
2019-01-19T18:53:26.869Z,97744.71
2019-01-19T18:56:32.986Z,97743.59
2019-01-19T18:59:25.713Z,97744.13
2019-01-19T19:02:19.273Z,97743.74
2019-01-19T19:05:45.416Z,97742.68
2019-01-19T19:08:40.630Z,97742.30
2019-01-19T19:11:46.559Z,97749.70
2019-01-19T19:14:47.829Z,97741.53
2019-01-19T19:17:46.667Z,97747.52
2019-01-19T19:20:31.366Z,97745.80
2019-01-19T19:23:41.996Z,97742.52
2019-01-19T19:26:50.736Z,97738.95
2019-01-19T19:29:42.965Z,97741.79
2019-01-19T19:32:58.185Z,97745.34
2019-01-19T19:36:04.886Z,97740.81
2019-01-19T19:39:19.087Z,97742.31
2019-01-19T19:42:24.902Z,97747.06
2019-01-19T19:45:37.361Z,97742.97
2019-01-19T19:48:29.457Z,97742.52
2019-01-19T19:51:38.339Z,97739.73
2019-01-19T19:54:07.784Z,97731.52
2019-01-19T19:56:35.861Z,97731.77
2019-01-19T19:59:05.289Z,97736.17
2019-01-19T20:01:34.741Z,97732.58
2019-01-19T20:04:04.411Z,97732.19
2019-01-19T20:06:33.854Z,97736.63
2019-01-19T20:09:03.755Z,97732.73
2019-01-19T20:11:33.866Z,97734.15
2019-01-19T20:14:03.353Z,97734.43
2019-01-19T20:16:32.814Z,97735.88
2019-01-19T20:19:02.378Z,97736.61
2019-01-19T20:21:31.838Z,97740.10
2019-01-19T20:24:01.328Z,97735.45
2019-01-19T20:26:30.795Z,97730.80
2019-01-19T20:29:00.243Z,97731.19
2019-01-19T20:31:29.722Z,97733.41
2019-01-19T20:33:59.187Z,97737.41
2019-01-19T20:36:28.640Z,97735.01
2019-01-19T20:38:58.081Z,97736.73
2019-01-19T20:41:27.649Z,97734.48
2019-01-19T20:43:57.479Z,97739.58
2019-01-19T20:46:26.870Z,97729.22
2019-01-19T20:48:56.325Z,97737.98
2019-01-19T20:51:25.770Z,97732.40
2019-01-19T20:53:55.232Z,97735.20
2019-01-19T20:56:24.684Z,97745.23
2019-01-19T20:58:54.154Z,97746.20
2019-01-19T21:01:23.595Z,97740.70
2019-01-19T21:03:53.150Z,97740.11
2019-01-19T21:06:22.606Z,97744.48
2019-01-19T21:08:52.040Z,97749.45
2019-01-19T21:11:21.501Z,97746.69
2019-01-19T21:13:50.996Z,97744.83
2019-01-19T21:16:20.419Z,97751.05
2019-01-19T21:18:49.864Z,97746.33
2019-01-19T21:21:19.347Z,97746.33
2019-01-19T21:23:48.811Z,97744.84
2019-01-19T21:26:18.565Z,97741.28
2019-01-19T21:28:48.011Z,97743.86
2019-01-19T21:31:17.448Z,97733.43
2019-01-19T21:33:46.940Z,97742.20
2019-01-19T21:36:16.383Z,97735.88
2019-01-19T21:38:45.856Z,97735.88
2019-01-19T21:41:15.302Z,97744.52
2019-01-19T21:43:44.774Z,97744.52
2019-01-19T21:46:14.226Z,97734.59
2019-01-19T21:48:43.777Z,97738.38
2019-01-19T21:51:13.221Z,97738.38
2019-01-19T21:53:42.680Z,97739.05
2019-01-19T21:56:12.170Z,97736.89
2019-01-19T21:58:41.615Z,97733.77
2019-01-19T22:01:11.083Z,97729.75
2019-01-19T22:03:40.531Z,97736.61
2019-01-19T22:06:09.992Z,97730.75
2019-01-19T22:08:39.483Z,97730.75
2019-01-19T22:11:08.964Z,97731.88
2019-01-19T22:13:38.410Z,97732.41
2019-01-19T22:16:07.896Z,97727.13
2019-01-19T22:18:37.372Z,97727.13
2019-01-19T22:21:06.815Z,97734.42
2019-01-19T22:23:36.323Z,97734.42
2019-01-19T22:26:07.670Z,97729.65
2019-01-19T22:28:37.255Z,97733.88
2019-01-19T22:31:06.679Z,97731.89
2019-01-19T22:33:36.264Z,97738.84
2019-01-19T22:36:05.712Z,97738.84
2019-01-19T22:38:35.381Z,97738.50
2019-01-19T22:41:05.017Z,97741.02
2019-01-19T22:43:35.329Z,97736.66
2019-01-19T22:46:04.922Z,97736.66
2019-01-19T22:48:34.507Z,97734.77
2019-01-19T22:51:11.051Z,97734.77
2019-01-19T22:53:35.470Z,97729.52
2019-01-19T22:56:05.340Z,97727.19
2019-01-19T22:58:34.791Z,97727.89
2019-01-19T23:01:25.314Z,97730.16
2019-01-19T23:03:54.763Z,97730.16
2019-01-19T23:06:24.222Z,97727.03
2019-01-19T23:08:53.686Z,97731.09
2019-01-19T23:11:23.143Z,97727.55
2019-01-19T23:13:52.783Z,97727.55
2019-01-19T23:16:22.224Z,97727.75
2019-01-19T23:18:51.705Z,97721.66
2019-01-19T23:21:21.143Z,97727.60
2019-01-19T23:23:50.606Z,97730.30
2019-01-19T23:26:20.264Z,97726.77
2019-01-19T23:28:49.699Z,97727.94
2019-01-19T23:31:19.171Z,97727.94
2019-01-19T23:33:48.611Z,97725.20
2019-01-19T23:36:18.167Z,97728.97
2019-01-19T23:38:47.597Z,97723.31
2019-01-19T23:41:17.037Z,97724.63
2019-01-19T23:43:46.499Z,97722.93
2019-01-19T23:46:15.943Z,97720.00
2019-01-19T23:48:45.409Z,97719.38
2019-01-19T23:51:14.850Z,97722.36
2019-01-19T23:53:44.502Z,97721.42
2019-01-19T23:56:13.952Z,97720.95
2019-01-19T23:58:43.417Z,97717.02
